Time;durP1;ratioP1;P1;durP2;ratioP2;P2;SDS_P1;SDS_P2;PMS_P1;PMS_P2;Temp;Humidity;BMP_temperature;BMP_pressure;BME280_temperature;BME280_humidity;BME280_pressure;Samples;Min_cycle;Max_cycle;Signal;HPM_P1;HPM_P2
2022/09/15 00:02:11;;;;;;;8.07;4.88;;;;;;;;;;4998541;28;20445;-80
2022/09/15 00:04:37;;;;;;;7.63;4.97;;;;;;;;;;5004131;28;20065;-79
2022/09/15 00:07:02;;;;;;;9.85;5.20;;;;;;;;;;5005051;28;20125;-78
2022/09/15 00:09:27;;;;;;;8.25;5.53;;;;;;;;;;5009890;28;20060;-78
2022/09/15 00:11:53;;;;;;;9.15;5.35;;;;;;;;;;5001775;28;20061;-78
2022/09/15 00:14:18;;;;;;;8.38;5.22;;;;;;;;;;5010131;28;20112;-78
2022/09/15 00:16:44;;;;;;;8.55;5.53;;;;;;;;;;5004785;28;20034;-78
2022/09/15 00:19:09;;;;;;;10.70;5.97;;;;;;;;;;5000936;28;20053;-78
2022/09/15 00:21:38;;;;;;;7.97;5.13;;;;;;;;;;5001500;28;20508;-78
2022/09/15 00:24:04;;;;;;;8.65;5.22;;;;;;;;;;5004041;28;20061;-78
2022/09/15 00:26:30;;;;;;;7.97;5.30;;;;;;;;;;5005533;28;20062;-78
2022/09/15 00:28:57;;;;;;;7.05;4.80;;;;;;;;;;5005897;28;20029;-78
2022/09/15 00:31:25;;;;;;;8.38;5.28;;;;;;;;;;5006461;28;20489;-76
2022/09/15 00:33:54;;;;;;;9.38;5.32;;;;;;;;;;5009954;28;20041;-78
2022/09/15 00:36:22;;;;;;;11.75;6.07;;;;;;;;;;5017885;28;20037;-78
2022/09/15 00:38:47;;;;;;;9.27;4.65;;;;;;;;;;5005742;28;20033;-78
2022/09/15 00:41:17;;;;;;;9.32;5.45;;;;;;;;;;5006875;28;20038;-78
2022/09/15 00:43:55;;;;;;;8.82;6.03;;;;;;;;;;5001248;28;20474;-78
2022/09/15 00:46:27;;;;;;;10.13;5.93;;;;;;;;;;5006031;28;20157;-78
2022/09/15 00:48:58;;;;;;;11.98;5.80;;;;;;;;;;5007719;28;20022;-78
2022/09/15 00:51:34;;;;;;;10.50;6.07;;;;;;;;;;5003614;28;20116;-78
2022/09/15 00:54:03;;;;;;;9.35;5.60;;;;;;;;;;5002950;28;20022;-78
2022/09/15 00:56:32;;;;;;;12.30;5.57;;;;;;;;;;5004547;28;20037;-78
2022/09/15 00:59:01;;;;;;;8.65;5.78;;;;;;;;;;5040410;28;20952;-78
2022/09/15 01:01:29;;;;;;;10.65;7.00;;;;;;;;;;5002557;28;20029;-80
2022/09/15 01:03:54;;;;;;;10.07;5.95;;;;;;;;;;5003732;28;20034;-78
2022/09/15 01:06:36;;;;;;;13.35;5.70;;;;;;;;;;5003826;28;20034;-79
2022/09/15 01:09:11;;;;;;;9.30;5.17;;;;;;;;;;5002235;28;20037;-78
2022/09/15 01:11:38;;;;;;;9.45;6.03;;;;;;;;;;5002155;28;20271;-78
2022/09/15 01:14:04;;;;;;;11.20;6.07;;;;;;;;;;5000937;28;20116;-78
2022/09/15 01:16:59;;;;;;;7.35;4.63;;;;;;;;;;5007303;28;20030;-79
2022/09/15 01:19:48;;;;;;;6.55;4.60;;;;;;;;;;5004710;28;20409;-78
2022/09/15 01:22:35;;;;;;;6.00;4.45;;;;;;;;;;5035673;28;20036;-78
2022/09/15 01:25:40;;;;;;;6.75;4.45;;;;;;;;;;5018429;28;20040;-78
2022/09/15 01:28:17;;;;;;;7.03;4.30;;;;;;;;;;5014758;28;20075;-78
2022/09/15 01:31:03;;;;;;;6.35;4.28;;;;;;;;;;5015589;28;20021;-80
2022/09/15 01:33:48;;;;;;;7.03;3.95;;;;;;;;;;5006106;28;20125;-78
2022/09/15 01:36:21;;;;;;;8.20;4.30;;;;;;;;;;5034044;28;20033;-78
2022/09/15 01:39:06;;;;;;;8.40;4.57;;;;;;;;;;5008115;28;20489;-78
2022/09/15 01:41:43;;;;;;;7.80;4.10;;;;;;;;;;5017067;28;20483;-78
2022/09/15 01:44:12;;;;;;;6.60;4.70;;;;;;;;;;5000866;28;20438;-78
2022/09/15 01:46:51;;;;;;;5.72;4.15;;;;;;;;;;5001901;28;20057;-78
2022/09/15 01:49:22;;;;;;;7.95;4.30;;;;;;;;;;5008961;28;20022;-78
2022/09/15 01:51:50;;;;;;;6.45;4.40;;;;;;;;;;4997262;28;20040;-78
2022/09/15 01:54:20;;;;;;;8.00;5.47;;;;;;;;;;5008196;28;20037;-78
2022/09/15 01:56:45;;;;;;;7.68;4.20;;;;;;;;;;5004215;28;20025;-78
2022/09/15 01:59:11;;;;;;;7.90;5.43;;;;;;;;;;5008244;28;20461;-78
2022/09/15 02:02:04;;;;;;;9.05;5.60;;;;;;;;;;5002806;28;20026;-79
2022/09/15 02:04:31;;;;;;;7.63;5.60;;;;;;;;;;5019044;28;20050;-78
2022/09/15 02:07:06;;;;;;;9.90;5.40;;;;;;;;;;4999918;28;20026;-78
2022/09/15 02:09:41;;;;;;;7.22;4.75;;;;;;;;;;5003758;28;20085;-78
2022/09/15 02:12:19;;;;;;;9.52;5.15;;;;;;;;;;5013615;28;20088;-78
2022/09/15 02:15:06;;;;;;;8.57;5.07;;;;;;;;;;5039999;28;20037;-78
2022/09/15 02:17:37;;;;;;;7.32;4.53;;;;;;;;;;5002766;28;20585;-78
2022/09/15 02:20:40;;;;;;;6.50;4.20;;;;;;;;;;5003065;28;20064;-77
2022/09/15 02:23:14;;;;;;;6.13;4.03;;;;;;;;;;5003073;28;20053;-78
2022/09/15 02:25:45;;;;;;;6.68;4.30;;;;;;;;;;5001213;28;20038;-77
2022/09/15 02:28:14;;;;;;;9.73;4.90;;;;;;;;;;5020077;28;20037;-78
2022/09/15 02:30:43;;;;;;;6.90;4.57;;;;;;;;;;5005406;28;20026;-77
2022/09/15 02:33:14;;;;;;;7.18;4.53;;;;;;;;;;4999691;28;20029;-78
2022/09/15 02:35:40;;;;;;;7.03;4.07;;;;;;;;;;5003834;28;20042;-78
2022/09/15 02:38:08;;;;;;;7.72;4.47;;;;;;;;;;5004088;28;20494;-78
2022/09/15 02:40:34;;;;;;;8.25;4.28;;;;;;;;;;5004470;28;20046;-78
2022/09/15 02:43:01;;;;;;;7.90;4.18;;;;;;;;;;5003439;28;20123;-78
2022/09/15 02:45:29;;;;;;;11.65;5.05;;;;;;;;;;4999045;28;20473;-79
2022/09/15 02:47:56;;;;;;;6.30;4.00;;;;;;;;;;5001459;28;20528;-78
2022/09/15 02:50:25;;;;;;;8.40;4.95;;;;;;;;;;5002515;28;20025;-78
2022/09/15 02:52:51;;;;;;;8.40;4.80;;;;;;;;;;5002958;28;20038;-78
2022/09/15 02:55:17;;;;;;;9.93;5.68;;;;;;;;;;5002346;28;20036;-79
2022/09/15 02:57:42;;;;;;;8.65;5.30;;;;;;;;;;5018381;28;20026;-78
2022/09/15 03:00:12;;;;;;;10.10;5.78;;;;;;;;;;5004163;28;20033;-79
2022/09/15 03:02:44;;;;;;;8.65;5.60;;;;;;;;;;5001243;28;20034;-78
2022/09/15 03:05:11;;;;;;;6.90;5.25;;;;;;;;;;5000507;28;20022;-78
2022/09/15 03:07:37;;;;;;;9.18;5.30;;;;;;;;;;4999762;28;20580;-79
2022/09/15 03:10:07;;;;;;;6.88;4.65;;;;;;;;;;5020812;28;20034;-78
2022/09/15 03:12:43;;;;;;;9.55;5.05;;;;;;;;;;5007841;28;20393;-78
2022/09/15 03:15:10;;;;;;;6.25;4.38;;;;;;;;;;5000951;28;20033;-79
2022/09/15 03:17:38;;;;;;;7.72;4.93;;;;;;;;;;5005081;28;20702;-78
2022/09/15 03:20:04;;;;;;;8.98;5.65;;;;;;;;;;5020268;28;20038;-78
2022/09/15 03:22:31;;;;;;;8.80;4.90;;;;;;;;;;5003571;28;20021;-78
2022/09/15 03:24:56;;;;;;;8.40;5.00;;;;;;;;;;5006948;28;20455;-78
2022/09/15 03:27:21;;;;;;;10.02;4.80;;;;;;;;;;4998300;28;20160;-78
2022/09/15 03:29:47;;;;;;;7.60;4.72;;;;;;;;;;5004951;28;20025;-78
2022/09/15 03:32:12;;;;;;;8.05;4.15;;;;;;;;;;5004086;28;20509;-78
2022/09/15 03:34:38;;;;;;;8.73;4.00;;;;;;;;;;5009241;28;20026;-78
2022/09/15 03:37:03;;;;;;;8.77;4.30;;;;;;;;;;5007598;28;20034;-78
2022/09/15 03:39:28;;;;;;;6.85;3.60;;;;;;;;;;5001062;28;20367;-78
2022/09/15 03:41:54;;;;;;;8.30;3.45;;;;;;;;;;5009757;28;20034;-79
2022/09/15 03:44:19;;;;;;;7.50;3.70;;;;;;;;;;5005484;28;20391;-79
2022/09/15 03:46:45;;;;;;;7.10;4.13;;;;;;;;;;5006843;28;20080;-79
2022/09/15 03:49:10;;;;;;;5.85;3.30;;;;;;;;;;5024152;28;20095;-79
2022/09/15 03:51:35;;;;;;;5.28;3.03;;;;;;;;;;5041007;28;20036;-78
2022/09/15 03:54:01;;;;;;;5.28;3.05;;;;;;;;;;5007609;28;20025;-78
2022/09/15 03:56:32;;;;;;;5.20;2.95;;;;;;;;;;5008133;28;20030;-78
2022/09/15 03:59:00;;;;;;;4.32;3.00;;;;;;;;;;5007226;28;20117;-78
2022/09/15 04:01:26;;;;;;;6.40;3.67;;;;;;;;;;5007674;28;20018;-78
2022/09/15 04:03:52;;;;;;;5.15;3.03;;;;;;;;;;5006697;28;20167;-78
2022/09/15 04:06:19;;;;;;;5.38;3.20;;;;;;;;;;5006668;28;20113;-78
2022/09/15 04:08:45;;;;;;;5.32;2.65;;;;;;;;;;5009737;28;20604;-78
2022/09/15 04:11:12;;;;;;;4.03;2.78;;;;;;;;;;5008854;28;20116;-78
2022/09/15 04:13:38;;;;;;;5.07;2.88;;;;;;;;;;5009833;28;20034;-78
2022/09/15 04:16:06;;;;;;;5.30;2.78;;;;;;;;;;5005677;28;20043;-78
2022/09/15 04:18:33;;;;;;;4.97;3.10;;;;;;;;;;5008918;28;20124;-78
2022/09/15 04:21:04;;;;;;;4.63;2.83;;;;;;;;;;5007916;28;20025;-79
2022/09/15 04:23:30;;;;;;;5.45;3.08;;;;;;;;;;5007078;28;20053;-78
2022/09/15 04:25:56;;;;;;;7.00;3.00;;;;;;;;;;5006408;28;20080;-78
2022/09/15 04:28:22;;;;;;;4.57;2.78;;;;;;;;;;5007121;28;20067;-78
2022/09/15 04:30:47;;;;;;;5.13;2.97;;;;;;;;;;5006448;28;20482;-79
2022/09/15 04:33:13;;;;;;;5.28;3.22;;;;;;;;;;5007886;28;20037;-78
2022/09/15 04:35:38;;;;;;;4.85;2.70;;;;;;;;;;5010708;28;20030;-78
2022/09/15 04:38:03;;;;;;;4.60;2.90;;;;;;;;;;5002219;28;20065;-79
2022/09/15 04:40:29;;;;;;;4.68;2.97;;;;;;;;;;5018652;28;20038;-78
2022/09/15 04:42:54;;;;;;;4.00;2.60;;;;;;;;;;5005427;28;20037;-78
2022/09/15 04:45:20;;;;;;;4.28;2.75;;;;;;;;;;5002658;28;20673;-78
2022/09/15 04:47:47;;;;;;;6.40;3.10;;;;;;;;;;5006769;28;20116;-79
2022/09/15 04:50:12;;;;;;;5.43;3.65;;;;;;;;;;5008360;28;20139;-78
2022/09/15 04:52:38;;;;;;;6.57;3.83;;;;;;;;;;5004153;28;20060;-78
2022/09/15 04:55:04;;;;;;;5.22;2.90;;;;;;;;;;5008197;28;20034;-79
2022/09/15 04:57:29;;;;;;;4.40;2.88;;;;;;;;;;5006415;28;20018;-79
2022/09/15 04:59:54;;;;;;;7.85;3.30;;;;;;;;;;5009872;28;20029;-78
2022/09/15 05:02:19;;;;;;;5.18;3.40;;;;;;;;;;4999346;28;20026;-78
2022/09/15 05:04:47;;;;;;;4.93;2.80;;;;;;;;;;5005451;28;20026;-79
2022/09/15 05:07:13;;;;;;;5.05;2.97;;;;;;;;;;5008662;28;20123;-78
2022/09/15 05:09:38;;;;;;;6.72;3.20;;;;;;;;;;5008726;28;20022;-78
2022/09/15 05:12:04;;;;;;;3.97;2.42;;;;;;;;;;5001255;28;20554;-79
2022/09/15 05:14:30;;;;;;;6.90;3.08;;;;;;;;;;4997022;28;20484;-78
2022/09/15 05:16:56;;;;;;;7.07;3.17;;;;;;;;;;5006258;28;20025;-78
2022/09/15 05:19:21;;;;;;;4.90;2.85;;;;;;;;;;5001009;28;20497;-78
2022/09/15 05:21:46;;;;;;;4.75;3.08;;;;;;;;;;5007694;28;20022;-79
2022/09/15 05:24:12;;;;;;;3.65;2.33;;;;;;;;;;5010812;28;20148;-79
2022/09/15 05:26:37;;;;;;;4.45;2.50;;;;;;;;;;5013347;28;20034;-78
2022/09/15 05:29:03;;;;;;;5.15;2.30;;;;;;;;;;5013856;28;20029;-78
2022/09/15 05:31:32;;;;;;;2.78;1.95;;;;;;;;;;5003853;28;20057;-78
2022/09/15 05:34:01;;;;;;;3.60;2.10;;;;;;;;;;5011836;28;20556;-78
2022/09/15 05:36:26;;;;;;;5.07;2.78;;;;;;;;;;5006701;28;20484;-78
2022/09/15 05:38:52;;;;;;;3.72;2.30;;;;;;;;;;5008074;28;20026;-78
2022/09/15 05:41:18;;;;;;;4.05;2.08;;;;;;;;;;5009817;28;20061;-78
2022/09/15 05:43:48;;;;;;;3.53;1.83;;;;;;;;;;5010948;28;20519;-77
2022/09/15 05:46:15;;;;;;;4.43;1.90;;;;;;;;;;5004865;28;20026;-78
2022/09/15 05:48:41;;;;;;;3.78;2.08;;;;;;;;;;5024664;28;20367;-78
2022/09/15 05:51:06;;;;;;;3.83;2.08;;;;;;;;;;5003411;28;20033;-78
2022/09/15 05:53:34;;;;;;;3.10;1.92;;;;;;;;;;5004160;28;20034;-78
2022/09/15 05:56:02;;;;;;;3.97;2.00;;;;;;;;;;5001639;28;20414;-78
2022/09/15 05:58:28;;;;;;;5.88;2.03;;;;;;;;;;5004923;28;20069;-78
2022/09/15 06:00:54;;;;;;;4.80;1.90;;;;;;;;;;5024638;28;20041;-78
2022/09/15 06:03:20;;;;;;;5.30;1.98;;;;;;;;;;5011036;28;20022;-78
2022/09/15 06:05:46;;;;;;;3.03;1.70;;;;;;;;;;5008027;28;20045;-78
2022/09/15 06:08:12;;;;;;;5.63;2.28;;;;;;;;;;5005299;28;20061;-79
2022/09/15 06:10:38;;;;;;;5.25;2.70;;;;;;;;;;5007800;28;20033;-78
2022/09/15 06:13:04;;;;;;;3.92;2.00;;;;;;;;;;5010454;28;20534;-78
2022/09/15 06:15:30;;;;;;;4.03;2.10;;;;;;;;;;5014661;28;20114;-78
2022/09/15 06:17:55;;;;;;;4.70;1.95;;;;;;;;;;5006295;28;20129;-78
2022/09/15 06:20:21;;;;;;;5.07;2.30;;;;;;;;;;5000345;28;20144;-78
2022/09/15 06:22:47;;;;;;;6.75;2.80;;;;;;;;;;5005802;28;20034;-78
2022/09/15 06:25:13;;;;;;;7.53;3.08;;;;;;;;;;5011335;28;20128;-78
2022/09/15 06:27:39;;;;;;;5.85;2.65;;;;;;;;;;5013069;28;20057;-77
2022/09/15 06:30:05;;;;;;;5.55;2.67;;;;;;;;;;5008513;28;20026;-78
2022/09/15 06:32:31;;;;;;;8.25;2.80;;;;;;;;;;5011268;28;20029;-78
2022/09/15 06:34:56;;;;;;;5.78;2.55;;;;;;;;;;5006380;28;20529;-78
2022/09/15 06:37:22;;;;;;;5.80;2.67;;;;;;;;;;4997939;28;20030;-81
2022/09/15 06:39:47;;;;;;;5.53;2.97;;;;;;;;;;5002635;28;20421;-79
2022/09/15 06:42:12;;;;;;;4.10;2.55;;;;;;;;;;5037287;28;20033;-78
2022/09/15 06:44:38;;;;;;;3.92;2.60;;;;;;;;;;5007852;28;20087;-78
2022/09/15 06:47:04;;;;;;;5.32;2.75;;;;;;;;;;5012822;28;20497;-78
2022/09/15 06:49:30;;;;;;;5.32;2.55;;;;;;;;;;5008323;28;20018;-78
2022/09/15 06:51:56;;;;;;;5.03;2.63;;;;;;;;;;5009202;28;20025;-78
2022/09/15 06:54:21;;;;;;;6.13;2.70;;;;;;;;;;5006941;28;20022;-79
2022/09/15 06:56:47;;;;;;;5.05;2.63;;;;;;;;;;5008836;28;20028;-80
2022/09/15 06:59:14;;;;;;;4.55;2.28;;;;;;;;;;5010065;28;20033;-78
2022/09/15 07:01:40;;;;;;;7.43;2.40;;;;;;;;;;5007346;28;20046;-78
2022/09/15 07:04:09;;;;;;;4.15;2.63;;;;;;;;;;5005715;28;20429;-78
2022/09/15 07:06:37;;;;;;;7.60;2.75;;;;;;;;;;5007926;28;20066;-79
2022/09/15 07:09:03;;;;;;;5.38;2.50;;;;;;;;;;5008661;28;20393;-79
2022/09/15 07:11:30;;;;;;;3.65;2.10;;;;;;;;;;5009933;28;20029;-78
2022/09/15 07:13:55;;;;;;;5.38;2.20;;;;;;;;;;5010641;28;20053;-78
2022/09/15 07:16:21;;;;;;;3.53;2.10;;;;;;;;;;5012192;28;20131;-78
2022/09/15 07:18:48;;;;;;;3.75;2.33;;;;;;;;;;5010959;28;20039;-78
2022/09/15 07:21:17;;;;;;;6.97;3.10;;;;;;;;;;5011430;28;20058;-78
2022/09/15 07:23:43;;;;;;;5.50;2.30;;;;;;;;;;5005880;28;21180;-78
2022/09/15 07:26:12;;;;;;;8.15;2.33;;;;;;;;;;5003073;28;20084;-78
2022/09/15 07:28:39;;;;;;;6.50;2.40;;;;;;;;;;5010011;28;20022;-78
2022/09/15 07:31:06;;;;;;;6.18;2.40;;;;;;;;;;5010103;28;20036;-78
2022/09/15 07:33:33;;;;;;;5.95;2.25;;;;;;;;;;5001584;28;20457;-78
2022/09/15 07:36:00;;;;;;;4.63;2.63;;;;;;;;;;5007724;28;20034;-78
2022/09/15 07:38:25;;;;;;;5.07;2.85;;;;;;;;;;5008537;28;20026;-78
2022/09/15 07:40:51;;;;;;;6.35;2.30;;;;;;;;;;5008962;28;20034;-79
2022/09/15 07:43:17;;;;;;;6.53;2.58;;;;;;;;;;5005416;28;20030;-78
2022/09/15 07:45:42;;;;;;;6.03;2.85;;;;;;;;;;5008209;28;20018;-78
2022/09/15 07:48:07;;;;;;;5.45;2.40;;;;;;;;;;5011473;28;20021;-77
2022/09/15 07:50:33;;;;;;;8.40;2.72;;;;;;;;;;5004850;28;20084;-78
2022/09/15 07:52:58;;;;;;;4.95;2.50;;;;;;;;;;5008959;28;20041;-78
2022/09/15 07:55:23;;;;;;;8.43;2.80;;;;;;;;;;5010437;28;20034;-78
2022/09/15 07:57:57;;;;;;;5.63;2.40;;;;;;;;;;5006425;28;20049;-79
2022/09/15 08:00:23;;;;;;;6.60;2.60;;;;;;;;;;5010820;28;20053;-78
2022/09/15 08:02:48;;;;;;;4.80;2.78;;;;;;;;;;5009248;28;20042;-78
2022/09/15 08:05:13;;;;;;;7.57;2.85;;;;;;;;;;5008863;28;20545;-79
2022/09/15 08:07:39;;;;;;;5.90;2.90;;;;;;;;;;5010056;28;20025;-78
2022/09/15 08:10:05;;;;;;;7.03;2.50;;;;;;;;;;5009920;28;20033;-79
2022/09/15 08:12:31;;;;;;;5.03;2.38;;;;;;;;;;5023410;28;20029;-78
2022/09/15 08:14:56;;;;;;;4.35;2.17;;;;;;;;;;5007198;28;20053;-78
2022/09/15 08:17:21;;;;;;;4.43;2.00;;;;;;;;;;5008131;28;20144;-77
2022/09/15 08:19:47;;;;;;;5.03;2.28;;;;;;;;;;5002695;28;20446;-77
2022/09/15 08:22:12;;;;;;;6.80;2.72;;;;;;;;;;5011454;28;20132;-78
2022/09/15 08:24:38;;;;;;;7.40;2.70;;;;;;;;;;5011553;28;20378;-78
2022/09/15 08:27:03;;;;;;;6.85;2.38;;;;;;;;;;5002727;28;20034;-78
2022/09/15 08:29:29;;;;;;;5.72;2.53;;;;;;;;;;5010228;28;20028;-78
2022/09/15 08:31:54;;;;;;;5.55;2.33;;;;;;;;;;5012029;28;20033;-78
2022/09/15 08:34:20;;;;;;;4.95;2.45;;;;;;;;;;5013505;28;20022;-78
2022/09/15 08:36:45;;;;;;;6.05;2.75;;;;;;;;;;5004096;28;20029;-78
2022/09/15 08:39:11;;;;;;;3.67;2.35;;;;;;;;;;5014034;28;20033;-78
2022/09/15 08:41:41;;;;;;;4.72;2.20;;;;;;;;;;5012530;28;20030;-77
2022/09/15 08:44:14;;;;;;;4.25;1.67;;;;;;;;;;5013558;28;20117;-78
2022/09/15 08:46:58;;;;;;;3.28;1.80;;;;;;;;;;5011413;28;20036;-78
2022/09/15 08:50:06;;;;;;;4.43;1.73;;;;;;;;;;5006231;28;20076;-78
2022/09/15 08:52:51;;;;;;;7.20;2.00;;;;;;;;;;5009301;28;20037;-78
2022/09/15 08:55:25;;;;;;;5.25;1.98;;;;;;;;;;5003051;28;20029;-78
2022/09/15 08:57:53;;;;;;;5.03;2.08;;;;;;;;;;5010502;28;20039;-78
2022/09/15 09:00:19;;;;;;;5.90;1.88;;;;;;;;;;5005262;28;20034;-78
2022/09/15 09:03:18;;;;;;;5.15;2.00;;;;;;;;;;5010259;28;20052;-78
2022/09/15 09:05:58;;;;;;;4.05;1.55;;;;;;;;;;5016695;28;20120;-78
2022/09/15 09:08:48;;;;;;;4.25;1.20;;;;;;;;;;5012487;28;20554;-78
2022/09/15 09:11:40;;;;;;;4.82;1.20;;;;;;;;;;5011305;28;20489;-78
2022/09/15 09:14:41;;;;;;;3.90;1.30;;;;;;;;;;5017043;28;20079;-77
2022/09/15 09:17:15;;;;;;;5.22;1.20;;;;;;;;;;4995746;28;20065;-78
2022/09/15 09:19:55;;;;;;;5.38;1.20;;;;;;;;;;5010451;28;20026;-77
2022/09/15 09:22:24;;;;;;;4.20;1.17;;;;;;;;;;5005284;28;20030;-78
2022/09/15 09:24:53;;;;;;;6.20;1.35;;;;;;;;;;5008883;28;20558;-77
2022/09/15 09:27:23;;;;;;;7.72;1.30;;;;;;;;;;5010811;28;20451;-78
2022/09/15 09:29:58;;;;;;;4.00;1.08;;;;;;;;;;5010154;28;20075;-78
2022/09/15 09:32:26;;;;;;;2.85;0.80;;;;;;;;;;5010594;28;20377;-78
2022/09/15 09:35:04;;;;;;;3.58;0.90;;;;;;;;;;5011165;28;20497;-78
2022/09/15 09:37:29;;;;;;;4.75;0.77;;;;;;;;;;5010487;28;20033;-78
2022/09/15 09:39:55;;;;;;;2.67;0.80;;;;;;;;;;5007485;28;20026;-78
2022/09/15 09:42:27;;;;;;;5.75;0.68;;;;;;;;;;5010457;28;20037;-78
2022/09/15 09:44:52;;;;;;;2.50;0.82;;;;;;;;;;5011957;28;20029;-77
2022/09/15 09:47:19;;;;;;;3.72;0.50;;;;;;;;;;5005791;28;20034;-78
2022/09/15 09:49:47;;;;;;;3.55;0.70;;;;;;;;;;5010405;28;20022;-78
2022/09/15 09:52:32;;;;;;;2.30;0.80;;;;;;;;;;5007102;28;20069;-78
2022/09/15 09:55:27;;;;;;;5.90;0.68;;;;;;;;;;5007256;28;20041;-78
2022/09/15 09:58:10;;;;;;;5.15;0.70;;;;;;;;;;5000971;28;20125;-78
2022/09/15 10:00:38;;;;;;;4.37;0.80;;;;;;;;;;5041297;28;20037;-78
2022/09/15 10:03:22;;;;;;;3.33;1.10;;;;;;;;;;5006594;28;20060;-78
2022/09/15 10:06:21;;;;;;;3.30;0.80;;;;;;;;;;5009440;28;20064;-78
2022/09/15 10:09:04;;;;;;;4.45;0.68;;;;;;;;;;5025644;28;20438;-77
2022/09/15 10:11:57;;;;;;;1.95;0.60;;;;;;;;;;5008037;28;20018;-78
2022/09/15 10:14:32;;;;;;;1.52;0.55;;;;;;;;;;5010472;28;20100;-78
2022/09/15 10:17:08;;;;;;;4.22;0.90;;;;;;;;;;5012898;28;20030;-78
2022/09/15 10:19:55;;;;;;;3.45;0.82;;;;;;;;;;5012068;28;20088;-78
2022/09/15 10:22:23;;;;;;;3.80;0.82;;;;;;;;;;5003465;28;20029;-78
2022/09/15 10:24:49;;;;;;;4.43;0.80;;;;;;;;;;5015553;28;20057;-78
2022/09/15 10:27:31;;;;;;;1.85;0.63;;;;;;;;;;5011135;28;20076;-78
2022/09/15 10:30:11;;;;;;;2.92;0.75;;;;;;;;;;5004411;28;20026;-77
2022/09/15 10:32:38;;;;;;;1.98;0.57;;;;;;;;;;5042898;28;20026;-78
2022/09/15 10:35:12;;;;;;;5.53;1.40;;;;;;;;;;5008496;28;20034;-80
2022/09/15 10:38:02;;;;;;;1.20;0.60;;;;;;;;;;5002312;28;20496;-77
2022/09/15 10:40:41;;;;;;;3.42;0.57;;;;;;;;;;5007883;28;20108;-78
2022/09/15 10:43:12;;;;;;;4.22;0.90;;;;;;;;;;5010112;28;20865;-80
2022/09/15 10:45:39;;;;;;;2.22;0.75;;;;;;;;;;5009491;28;20026;-79
2022/09/15 10:48:10;;;;;;;3.05;1.13;;;;;;;;;;5007820;28;20017;-78
2022/09/15 10:51:17;;;;;;;1.63;0.70;;;;;;;;;;5003718;28;20034;-78
2022/09/15 10:54:06;;;;;;;1.98;0.57;;;;;;;;;;5004061;28;20040;-78
2022/09/15 10:56:44;;;;;;;5.03;0.68;;;;;;;;;;5006144;28;20064;-78
2022/09/15 10:59:44;;;;;;;2.38;0.82;;;;;;;;;;5010187;28;20033;-78
2022/09/15 11:02:30;;;;;;;3.42;0.95;;;;;;;;;;5005003;28;20037;-78
2022/09/15 11:05:10;;;;;;;2.38;0.70;;;;;;;;;;5021470;28;20037;-79
2022/09/15 11:07:48;;;;;;;2.20;0.47;;;;;;;;;;5009046;28;20030;-78
2022/09/15 11:10:50;;;;;;;1.75;0.70;;;;;;;;;;5006012;28;20030;-78
2022/09/15 11:13:24;;;;;;;7.72;1.92;;;;;;;;;;4999999;28;20037;-77
2022/09/15 11:16:02;;;;;;;5.70;1.20;;;;;;;;;;5032436;28;20034;-80
2022/09/15 11:18:48;;;;;;;3.53;0.70;;;;;;;;;;5009583;28;20041;-78
2022/09/15 11:21:36;;;;;;;4.60;0.65;;;;;;;;;;5006364;28;20374;-78
2022/09/15 11:24:27;;;;;;;1.95;0.70;;;;;;;;;;5038746;28;20029;-77
2022/09/15 11:27:06;;;;;;;3.00;0.70;;;;;;;;;;5011390;28;20466;-78
2022/09/15 11:29:46;;;;;;;4.03;0.95;;;;;;;;;;5034796;28;20108;-78
2022/09/15 11:32:24;;;;;;;3.85;0.80;;;;;;;;;;5037745;28;20118;-78
2022/09/15 11:35:03;;;;;;;3.28;0.70;;;;;;;;;;5007254;28;20027;-78
2022/09/15 11:37:38;;;;;;;3.33;0.95;;;;;;;;;;5007837;28;20486;-78
2022/09/15 11:40:22;;;;;;;4.70;0.70;;;;;;;;;;5006737;28;20386;-78
2022/09/15 11:43:04;;;;;;;2.05;0.95;;;;;;;;;;5009599;28;20137;-78
2022/09/15 11:45:37;;;;;;;4.07;0.95;;;;;;;;;;5006994;28;20026;-77
2022/09/15 11:48:14;;;;;;;2.72;0.68;;;;;;;;;;5011410;28;20042;-77
2022/09/15 11:50:44;;;;;;;3.83;0.90;;;;;;;;;;4999345;28;20501;-78
2022/09/15 11:53:30;;;;;;;2.90;1.00;;;;;;;;;;5007412;28;20026;-78
2022/09/15 11:56:20;;;;;;;3.38;0.80;;;;;;;;;;5008380;28;20041;-78
2022/09/15 11:59:04;;;;;;;4.65;0.68;;;;;;;;;;5007225;28;20508;-79
2022/09/15 12:01:51;;;;;;;5.28;0.82;;;;;;;;;;5010111;28;20029;-78
2022/09/15 12:04:36;;;;;;;2.80;0.80;;;;;;;;;;5007030;28;20429;-78
2022/09/15 12:07:12;;;;;;;1.27;0.52;;;;;;;;;;5021513;28;20482;-78
2022/09/15 12:09:38;;;;;;;2.03;0.70;;;;;;;;;;5012060;28;20466;-78
2022/09/15 12:12:17;;;;;;;2.63;0.60;;;;;;;;;;5011941;28;20107;-78
2022/09/15 12:14:45;;;;;;;2.38;0.70;;;;;;;;;;5011174;28;20121;-78
2022/09/15 12:17:33;;;;;;;2.35;0.60;;;;;;;;;;5005418;28;20029;-80
2022/09/15 12:20:01;;;;;;;4.07;0.60;;;;;;;;;;5011661;28;20036;-78
2022/09/15 12:22:34;;;;;;;3.30;0.75;;;;;;;;;;5011939;28;20033;-78
2022/09/15 12:25:11;;;;;;;4.20;1.30;;;;;;;;;;5010291;28;20030;-77
2022/09/15 12:27:37;;;;;;;2.80;0.70;;;;;;;;;;5011236;28;20045;-78
2022/09/15 12:30:04;;;;;;;2.97;0.82;;;;;;;;;;5010512;28;20026;-78
2022/09/15 12:32:33;;;;;;;1.77;0.77;;;;;;;;;;5008429;28;20048;-78
2022/09/15 12:35:05;;;;;;;5.15;1.02;;;;;;;;;;5012227;28;20478;-78
2022/09/15 12:37:38;;;;;;;2.55;0.82;;;;;;;;;;5003531;28;20030;-78
2022/09/15 12:40:06;;;;;;;2.17;0.88;;;;;;;;;;5012769;28;20026;-80
2022/09/15 12:42:33;;;;;;;3.50;0.90;;;;;;;;;;5041923;28;20176;-78
2022/09/15 12:45:23;;;;;;;2.78;0.90;;;;;;;;;;5009530;28;20504;-79
2022/09/15 12:48:21;;;;;;;2.08;0.90;;;;;;;;;;5003609;28;20095;-79
2022/09/15 12:50:55;;;;;;;3.75;0.77;;;;;;;;;;5006151;28;20443;-79
2022/09/15 12:53:25;;;;;;;3.63;0.90;;;;;;;;;;5009091;28;20478;-78
2022/09/15 12:55:51;;;;;;;1.60;0.80;;;;;;;;;;5006242;28;20084;-78
2022/09/15 12:58:34;;;;;;;1.50;0.70;;;;;;;;;;5011710;28;20025;-78
2022/09/15 13:01:23;;;;;;;4.20;0.80;;;;;;;;;;5011814;28;20108;-78
2022/09/15 13:03:48;;;;;;;2.97;0.90;;;;;;;;;;5033568;28;20069;-78
2022/09/15 13:06:21;;;;;;;2.05;0.65;;;;;;;;;;5007406;28;20030;-78
2022/09/15 13:08:49;;;;;;;1.63;0.60;;;;;;;;;;5009554;28;20032;-78
2022/09/15 13:11:35;;;;;;;2.00;0.90;;;;;;;;;;5011116;28;20065;-78
2022/09/15 13:14:07;;;;;;;2.05;0.77;;;;;;;;;;5008277;28;20375;-78
2022/09/15 13:16:51;;;;;;;1.80;0.82;;;;;;;;;;5012269;28;20501;-79
2022/09/15 13:19:19;;;;;;;2.85;0.93;;;;;;;;;;5008703;28;20566;-77
2022/09/15 13:21:53;;;;;;;2.75;0.77;;;;;;;;;;5010615;28;20049;-78
2022/09/15 13:24:35;;;;;;;1.77;0.70;;;;;;;;;;4999075;28;20486;-78
2022/09/15 13:27:02;;;;;;;3.03;0.70;;;;;;;;;;5006345;28;20033;-78
2022/09/15 13:29:31;;;;;;;2.22;0.60;;;;;;;;;;5009284;28;20601;-78
2022/09/15 13:32:15;;;;;;;3.40;0.75;;;;;;;;;;5007730;28;20030;-79
2022/09/15 13:35:12;;;;;;;2.47;0.70;;;;;;;;;;5003811;28;20037;-78
2022/09/15 13:38:03;;;;;;;1.52;0.55;;;;;;;;;;5008200;28;20074;-78
2022/09/15 13:41:05;;;;;;;2.25;0.70;;;;;;;;;;5008452;28;20092;-78
2022/09/15 13:44:10;;;;;;;1.20;0.50;;;;;;;;;;5005739;28;20018;-79
2022/09/15 13:46:53;;;;;;;3.10;0.50;;;;;;;;;;5005051;28;20033;-78
2022/09/15 13:49:37;;;;;;;1.98;0.57;;;;;;;;;;5009596;28;20025;-80
2022/09/15 13:52:22;;;;;;;1.17;0.50;;;;;;;;;;5003078;28;20045;-78
2022/09/15 13:55:21;;;;;;;2.08;0.50;;;;;;;;;;5012213;28;20049;-79
2022/09/15 13:57:51;;;;;;;2.88;0.82;;;;;;;;;;5001186;28;20014;-77
2022/09/15 14:00:26;;;;;;;1.85;0.57;;;;;;;;;;5011968;28;20033;-80
2022/09/15 14:03:16;;;;;;;3.42;0.60;;;;;;;;;;5001394;28;20092;-78
2022/09/15 14:05:43;;;;;;;1.85;0.47;;;;;;;;;;4998521;28;20152;-78
2022/09/15 14:08:13;;;;;;;5.70;0.65;;;;;;;;;;5006464;28;20022;-79
2022/09/15 14:11:01;;;;;;;2.15;0.52;;;;;;;;;;5013647;28;20028;-78
2022/09/15 14:13:28;;;;;;;2.50;0.50;;;;;;;;;;5010549;28;20029;-78
2022/09/15 14:16:07;;;;;;;2.55;0.60;;;;;;;;;;4986009;28;20038;-80
2022/09/15 14:18:44;;;;;;;2.88;0.40;;;;;;;;;;4998456;28;20068;-80
2022/09/15 14:21:16;;;;;;;3.95;0.70;;;;;;;;;;4993213;28;20104;-81
2022/09/15 14:23:53;;;;;;;3.88;1.00;;;;;;;;;;4994084;28;20497;-80
2022/09/15 14:26:22;;;;;;;1.92;0.50;;;;;;;;;;4996123;28;20061;-78
2022/09/15 14:28:57;;;;;;;1.42;0.55;;;;;;;;;;4999947;28;20057;-79
2022/09/15 14:31:37;;;;;;;3.35;0.70;;;;;;;;;;4999929;28;20025;-78
2022/09/15 14:34:13;;;;;;;2.40;0.90;;;;;;;;;;5000914;28;20421;-79
2022/09/15 14:36:39;;;;;;;2.22;0.60;;;;;;;;;;4993774;28;20518;-79
2022/09/15 14:39:10;;;;;;;3.15;0.60;;;;;;;;;;4999750;28;20125;-79
2022/09/15 14:41:37;;;;;;;2.85;0.70;;;;;;;;;;5004314;28;20041;-79
2022/09/15 14:44:35;;;;;;;2.05;0.57;;;;;;;;;;4996482;28;20026;-80
2022/09/15 14:47:10;;;;;;;5.03;0.68;;;;;;;;;;5002783;28;20125;-80
2022/09/15 14:49:36;;;;;;;2.22;0.60;;;;;;;;;;4997966;28;20076;-78
2022/09/15 14:52:02;;;;;;;1.15;0.60;;;;;;;;;;4997981;28;20021;-80
2022/09/15 14:54:35;;;;;;;3.15;0.65;;;;;;;;;;4992925;28;20091;-80
2022/09/15 14:57:02;;;;;;;3.15;0.60;;;;;;;;;;4999558;28;20026;-81
2022/09/15 14:59:43;;;;;;;4.40;0.63;;;;;;;;;;5001468;28;20509;-81
2022/09/15 15:02:25;;;;;;;4.60;1.00;;;;;;;;;;5015415;28;20097;-80
2022/09/15 15:04:56;;;;;;;2.30;0.65;;;;;;;;;;5008465;28;20115;-81
2022/09/15 15:07:26;;;;;;;2.42;0.50;;;;;;;;;;4995801;28;20099;-81
2022/09/15 15:09:56;;;;;;;2.55;0.60;;;;;;;;;;4998211;28;20030;-79
2022/09/15 15:12:27;;;;;;;3.28;0.80;;;;;;;;;;5002050;28;20038;-79
2022/09/15 15:14:54;;;;;;;2.80;0.60;;;;;;;;;;4999808;28;20036;-80